Funston, Georgia
Current Conditions -  °F | °C
As of 11:15 PM on Sunday 21 Dec 2014 (Local Time) from KMGR Reporting Station
Haze Haze  
Wind Chill: 52°   Ceiling: 300
Heat Index: 52°   Visibility: 2mi
Dew Point: 52°   Wind: 3mph
Humidity: 100%   Direction: 100°E
Pressure: 30.06"   Gusts: NA
Location:  31.2°N, 83.87°W
Report Text: KMGR 220415Z AUTO 10003KT 2SM BR OVC003 11/11 A3006 RMK AO2
Loading
Personal Weather Stations






























Interactive Weather Map New forecast layout! Learn more

10-Day Weather Forecast

Advertisements
Track Severe Weather on mobile